Time;durP1;ratioP1;P1;durP2;ratioP2;P2;SDS_P1;SDS_P2;PMS_P1;PMS_P2;Temp;Humidity;BMP_temperature;BMP_pressure;BME280_temperature;BME280_humidity;BME280_pressure;Samples;Min_cycle;Max_cycle;Signal;HPM_P1;HPM_P2
2023/08/28 00:00:50;;;;;;;7.03;3.70;;;17.10;75.90;;;;;;5040811;28;20104;-66
2023/08/28 00:03:16;;;;;;;8.25;4.03;;;17.10;76.00;;;;;;5060307;28;20021;-66
2023/08/28 00:05:42;;;;;;;7.80;4.25;;;17.10;76.00;;;;;;5013970;28;20022;-66
2023/08/28 00:08:08;;;;;;;7.50;4.00;;;17.10;76.00;;;;;;5034906;28;20036;-66
2023/08/28 00:10:33;;;;;;;7.60;4.20;;;17.10;76.10;;;;;;5017900;28;20121;-66
2023/08/28 00:12:59;;;;;;;7.20;3.72;;;17.10;76.10;;;;;;5025011;28;20053;-66
2023/08/28 00:15:25;;;;;;;8.27;3.72;;;17.00;76.10;;;;;;5016552;28;20029;-66
2023/08/28 00:17:50;;;;;;;7.15;3.60;;;17.00;76.10;;;;;;5033224;28;20029;-66
2023/08/28 00:20:16;;;;;;;7.88;3.67;;;17.00;76.10;;;;;;5022760;28;20064;-65
2023/08/28 00:22:42;;;;;;;7.03;3.72;;;17.00;76.10;;;;;;5029031;28;20032;-66
2023/08/28 00:25:09;;;;;;;6.60;3.80;;;17.00;76.20;;;;;;5032376;28;20413;-66
2023/08/28 00:27:35;;;;;;;6.72;3.70;;;17.00;76.20;;;;;;5030496;28;20029;-66
2023/08/28 00:30:03;;;;;;;8.70;3.42;;;17.00;76.20;;;;;;5020663;28;20021;-66
2023/08/28 00:32:29;;;;;;;7.85;4.00;;;16.90;76.20;;;;;;5032987;28;20019;-66
2023/08/28 00:34:56;;;;;;;7.22;3.60;;;16.90;76.30;;;;;;5033962;28;20393;-66
2023/08/28 00:37:21;;;;;;;6.47;3.45;;;16.90;76.30;;;;;;5024526;28;20025;-66
2023/08/28 00:39:48;;;;;;;7.10;4.03;;;16.90;76.40;;;;;;5017894;28;20057;-66
2023/08/28 00:42:13;;;;;;;8.55;3.67;;;16.90;76.40;;;;;;5030951;28;20438;-66
2023/08/28 00:44:40;;;;;;;5.93;3.42;;;16.90;76.40;;;;;;5063487;28;20124;-65
2023/08/28 00:47:08;;;;;;;7.30;3.50;;;16.90;76.50;;;;;;5033478;28;20101;-67
2023/08/28 00:49:34;;;;;;;8.23;3.58;;;16.80;76.50;;;;;;5062062;28;20133;-66
2023/08/28 00:52:00;;;;;;;7.65;4.30;;;16.80;76.50;;;;;;5027611;28;20093;-66
2023/08/28 00:54:27;;;;;;;8.93;3.47;;;16.90;76.60;;;;;;5033137;28;20373;-66
2023/08/28 00:56:57;;;;;;;8.18;3.80;;;16.80;76.60;;;;;;5028066;28;20021;-66
2023/08/28 00:59:23;;;;;;;7.05;3.58;;;16.80;76.60;;;;;;5036265;28;20121;-66
2023/08/28 01:01:49;;;;;;;6.65;3.33;;;16.80;76.60;;;;;;5025733;28;20052;-66
2023/08/28 01:04:15;;;;;;;7.05;3.60;;;16.80;76.60;;;;;;5032053;28;20488;-65
2023/08/28 01:06:52;;;;;;;7.75;3.65;;;16.80;76.70;;;;;;5027726;28;20026;-66
2023/08/28 01:09:50;;;;;;;8.40;3.60;;;16.80;76.70;;;;;;5029316;28;20017;-66
2023/08/28 01:12:59;;;;;;;7.70;3.30;;;16.80;76.70;;;;;;5034816;28;20025;-66
2023/08/28 01:15:27;;;;;;;6.97;3.70;;;16.70;76.60;;;;;;5044778;28;20374;-66
2023/08/28 01:18:00;;;;;;;6.63;3.42;;;16.70;76.80;;;;;;5052197;28;20034;-66
2023/08/28 01:20:31;;;;;;;7.35;3.42;;;16.70;76.80;;;;;;5035082;28;20083;-66
2023/08/28 01:23:05;;;;;;;5.93;3.17;;;16.70;76.90;;;;;;5033326;28;20034;-66
2023/08/28 01:25:32;;;;;;;6.85;3.42;;;16.70;77.00;;;;;;5033395;28;20033;-66
2023/08/28 01:27:59;;;;;;;6.28;3.45;;;16.60;77.00;;;;;;5015051;28;20070;-66
2023/08/28 01:30:25;;;;;;;6.85;3.22;;;16.60;77.00;;;;;;5033340;28;20040;-66
2023/08/28 01:32:51;;;;;;;6.40;3.80;;;16.70;77.10;;;;;;5033539;28;20033;-66
2023/08/28 01:35:29;;;;;;;9.27;3.55;;;16.60;77.00;;;;;;5049184;28;20036;-66
2023/08/28 01:38:19;;;;;;;6.03;3.15;;;16.60;77.00;;;;;;5056475;28;20450;-66
2023/08/28 01:41:07;;;;;;;8.27;3.47;;;16.60;77.00;;;;;;5034256;28;20030;-65
2023/08/28 01:43:38;;;;;;;7.60;3.65;;;16.60;77.10;;;;;;5031498;28;20018;-65
2023/08/28 01:46:05;;;;;;;7.35;3.67;;;16.50;77.10;;;;;;5031521;28;20076;-65
2023/08/28 01:48:35;;;;;;;7.13;3.55;;;16.60;77.10;;;;;;5006868;28;20025;-66
2023/08/28 01:51:02;;;;;;;7.07;3.50;;;16.50;77.10;;;;;;5043374;28;20023;-66
2023/08/28 01:53:28;;;;;;;7.57;3.63;;;16.50;77.10;;;;;;5022552;28;20025;-66
2023/08/28 01:56:02;;;;;;;7.70;3.75;;;16.50;77.20;;;;;;5030627;28;20091;-66
2023/08/28 01:58:30;;;;;;;5.97;3.10;;;16.50;77.20;;;;;;5027886;28;20095;-65
2023/08/28 02:00:56;;;;;;;8.73;3.70;;;16.50;77.20;;;;;;5016699;28;20026;-66
2023/08/28 02:03:22;;;;;;;6.72;3.75;;;16.50;77.30;;;;;;5034066;28;20025;-65
2023/08/28 02:05:47;;;;;;;6.00;3.30;;;16.50;77.30;;;;;;5034813;28;20095;-65
2023/08/28 02:08:13;;;;;;;6.07;3.30;;;16.50;77.30;;;;;;5036158;28;20033;-66
2023/08/28 02:10:39;;;;;;;7.10;3.70;;;16.50;77.30;;;;;;5032481;28;20033;-65
2023/08/28 02:13:05;;;;;;;6.72;3.33;;;16.50;77.30;;;;;;5037076;28;20034;-65
2023/08/28 02:15:30;;;;;;;6.70;3.55;;;16.50;77.40;;;;;;5037058;28;20108;-66
2023/08/28 02:17:56;;;;;;;7.80;3.92;;;16.50;77.40;;;;;;5036099;28;20030;-65
2023/08/28 02:20:22;;;;;;;7.63;3.83;;;16.50;77.40;;;;;;5027190;28;20072;-66
2023/08/28 02:22:48;;;;;;;8.63;4.43;;;16.40;77.40;;;;;;5042840;28;20390;-66
2023/08/28 02:25:20;;;;;;;8.07;3.72;;;16.40;77.40;;;;;;5019612;28;20029;-66
2023/08/28 02:27:46;;;;;;;8.45;3.60;;;16.40;77.40;;;;;;5034205;28;20029;-65
2023/08/28 02:30:12;;;;;;;8.70;3.25;;;16.40;77.40;;;;;;5035928;28;20064;-66
2023/08/28 02:32:38;;;;;;;9.00;3.50;;;16.40;77.50;;;;;;5030678;28;20026;-65
2023/08/28 02:35:04;;;;;;;7.28;3.58;;;16.40;77.50;;;;;;5027531;28;20033;-66
2023/08/28 02:37:30;;;;;;;6.65;3.63;;;16.30;77.40;;;;;;5030121;28;20033;-66
2023/08/28 02:39:55;;;;;;;7.45;4.00;;;16.30;77.40;;;;;;5021891;28;20116;-66
2023/08/28 02:42:21;;;;;;;7.78;3.85;;;16.30;77.40;;;;;;5024924;28;20411;-65
2023/08/28 02:44:47;;;;;;;9.80;4.32;;;16.30;77.40;;;;;;5018645;28;20739;-66
2023/08/28 02:47:13;;;;;;;8.98;4.25;;;16.30;77.40;;;;;;5018717;28;20398;-65
2023/08/28 02:49:38;;;;;;;8.32;4.38;;;16.30;77.40;;;;;;5020994;28;20022;-65
2023/08/28 02:52:04;;;;;;;7.88;3.70;;;16.30;77.40;;;;;;5019012;28;20056;-66
2023/08/28 02:54:31;;;;;;;7.25;4.13;;;16.30;77.50;;;;;;5015918;28;20041;-65
2023/08/28 02:56:56;;;;;;;7.75;4.43;;;16.20;77.40;;;;;;5015422;28;20107;-66
2023/08/28 02:59:22;;;;;;;8.57;4.35;;;16.20;77.40;;;;;;5017750;28;20517;-65
2023/08/28 03:01:48;;;;;;;7.85;4.20;;;16.20;77.40;;;;;;5037606;28;20018;-65
2023/08/28 03:04:14;;;;;;;6.72;4.07;;;16.20;77.40;;;;;;5027950;28;20029;-65
2023/08/28 03:06:39;;;;;;;7.38;4.20;;;16.20;77.40;;;;;;5027683;28;20105;-65
2023/08/28 03:09:10;;;;;;;7.20;4.10;;;16.20;77.40;;;;;;5025762;28;20045;-65
2023/08/28 03:11:36;;;;;;;8.10;4.47;;;16.10;77.40;;;;;;5017932;28;20435;-65
2023/08/28 03:14:02;;;;;;;7.07;4.20;;;16.10;77.40;;;;;;5035155;28;20069;-65
2023/08/28 03:16:29;;;;;;;7.28;3.97;;;16.10;77.40;;;;;;5014602;28;20091;-65
2023/08/28 03:18:54;;;;;;;8.20;3.90;;;16.10;77.40;;;;;;5020139;28;20033;-66
2023/08/28 03:21:20;;;;;;;8.10;4.28;;;16.10;77.50;;;;;;5016562;28;20022;-66
2023/08/28 03:23:46;;;;;;;8.27;4.60;;;16.10;77.50;;;;;;5047540;28;20083;-65
2023/08/28 03:26:12;;;;;;;7.20;4.25;;;16.10;77.50;;;;;;5024005;28;20029;-65
2023/08/28 03:28:38;;;;;;;9.68;4.68;;;16.10;77.50;;;;;;5016225;28;20034;-66
2023/08/28 03:31:03;;;;;;;7.03;4.30;;;16.10;77.60;;;;;;5019146;28;20061;-65
2023/08/28 03:33:30;;;;;;;8.23;4.82;;;16.10;77.60;;;;;;5016205;28;20191;-65
2023/08/28 03:35:56;;;;;;;9.75;4.80;;;16.10;77.70;;;;;;5015366;28;20030;-65
2023/08/28 03:38:22;;;;;;;7.65;4.40;;;16.10;77.70;;;;;;5018357;28;20041;-66
2023/08/28 03:40:47;;;;;;;9.93;4.55;;;16.10;78.30;;;;;;5024183;28;20553;-66
2023/08/28 03:43:13;;;;;;;8.23;4.45;;;16.10;77.70;;;;;;5021564;28;20025;-66
2023/08/28 03:45:40;;;;;;;8.60;4.82;;;16.10;77.70;;;;;;5018019;28;20100;-66
2023/08/28 03:48:06;;;;;;;7.57;4.63;;;16.10;77.70;;;;;;5021943;28;20116;-66
2023/08/28 03:50:32;;;;;;;7.80;4.40;;;16.10;77.70;;;;;;5017783;28;20370;-66
2023/08/28 03:52:59;;;;;;;7.70;4.55;;;16.10;77.70;;;;;;5026860;28;20030;-65
2023/08/28 03:55:27;;;;;;;7.47;4.55;;;16.10;77.70;;;;;;5014670;28;20446;-66
2023/08/28 03:57:53;;;;;;;7.60;4.47;;;16.10;77.70;;;;;;5020173;28;20094;-66
2023/08/28 04:00:20;;;;;;;9.73;5.50;;;16.00;77.70;;;;;;5031622;28;20017;-66
2023/08/28 04:02:47;;;;;;;8.23;4.95;;;16.00;77.80;;;;;;5027212;28;20454;-66
2023/08/28 04:05:13;;;;;;;7.85;4.95;;;16.00;77.80;;;;;;5013824;28;20049;-66
2023/08/28 04:07:40;;;;;;;8.80;5.07;;;16.00;77.90;;;;;;5019544;28;20366;-66
2023/08/28 04:10:07;;;;;;;8.00;4.75;;;16.00;77.90;;;;;;5007984;28;20022;-66
2023/08/28 04:12:33;;;;;;;9.00;4.88;;;16.00;77.90;;;;;;5035757;28;20029;-66
2023/08/28 04:14:59;;;;;;;8.82;4.65;;;16.00;77.90;;;;;;5017666;28;20045;-66
2023/08/28 04:17:25;;;;;;;8.80;5.25;;;16.00;77.90;;;;;;5021318;28;20067;-66
2023/08/28 04:19:52;;;;;;;9.15;4.70;;;16.00;77.90;;;;;;5018772;28;20443;-66
2023/08/28 04:22:19;;;;;;;7.72;5.13;;;16.00;78.00;;;;;;5042627;28;20021;-65
2023/08/28 04:24:48;;;;;;;7.68;4.60;;;15.90;77.90;;;;;;5018838;28;20503;-66
2023/08/28 04:27:14;;;;;;;8.75;5.32;;;15.90;77.90;;;;;;5021351;28;20022;-65
2023/08/28 04:29:40;;;;;;;9.05;5.60;;;16.00;78.00;;;;;;5027177;28;20033;-66
2023/08/28 04:32:06;;;;;;;9.32;5.22;;;16.00;78.70;;;;;;5023048;28;20339;-65
2023/08/28 04:34:32;;;;;;;8.48;5.40;;;16.00;78.10;;;;;;5027625;28;20049;-65
2023/08/28 04:36:58;;;;;;;8.48;4.82;;;16.00;78.20;;;;;;5050990;28;20030;-65
2023/08/28 04:39:23;;;;;;;9.23;5.43;;;16.00;78.30;;;;;;5024008;28;20041;-65
2023/08/28 04:41:52;;;;;;;9.13;5.90;;;16.00;78.30;;;;;;5033355;28;20168;-65
2023/08/28 04:44:19;;;;;;;9.73;5.70;;;16.00;78.40;;;;;;5030938;28;20438;-65
2023/08/28 04:46:47;;;;;;;9.82;5.82;;;16.10;78.50;;;;;;5027744;28;20025;-65
2023/08/28 04:49:13;;;;;;;9.18;5.60;;;16.10;78.60;;;;;;5018459;28;20037;-65
2023/08/28 04:51:39;;;;;;;10.27;5.30;;;16.10;78.60;;;;;;5033593;28;20061;-65
2023/08/28 04:54:05;;;;;;;9.45;6.22;;;16.10;78.60;;;;;;5041962;28;20088;-65
2023/08/28 04:56:31;;;;;;;9.73;6.07;;;16.10;78.60;;;;;;5032428;28;20061;-65
2023/08/28 04:58:57;;;;;;;9.43;6.22;;;16.10;79.30;;;;;;5035588;28;20068;-65
2023/08/28 05:01:22;;;;;;;10.60;6.13;;;16.10;78.70;;;;;;5034408;28;20025;-65
2023/08/28 05:03:50;;;;;;;9.27;6.10;;;16.10;78.70;;;;;;5035145;28;20021;-65
2023/08/28 05:06:15;;;;;;;10.77;6.20;;;16.10;78.70;;;;;;5033264;28;20116;-65
2023/08/28 05:08:41;;;;;;;9.38;6.47;;;16.20;78.80;;;;;;5034664;28;20026;-65
2023/08/28 05:11:07;;;;;;;9.63;6.40;;;16.20;78.70;;;;;;5034937;28;20087;-65
2023/08/28 05:13:33;;;;;;;8.90;5.85;;;16.20;78.80;;;;;;5033634;28;20035;-65
2023/08/28 05:15:58;;;;;;;9.57;6.25;;;16.20;78.80;;;;;;5027031;28;20104;-65
2023/08/28 05:18:25;;;;;;;11.02;6.63;;;16.20;78.80;;;;;;5046511;28;20029;-65
2023/08/28 05:20:51;;;;;;;8.85;6.28;;;16.20;78.80;;;;;;5028662;28;20017;-65
2023/08/28 05:23:24;;;;;;;11.45;6.90;;;16.20;78.90;;;;;;5028799;28;20022;-65
2023/08/28 05:25:51;;;;;;;9.85;6.90;;;16.20;78.90;;;;;;5026806;28;20022;-65
2023/08/28 05:28:17;;;;;;;10.15;7.13;;;16.30;78.90;;;;;;5037802;28;20087;-65
2023/08/28 05:30:44;;;;;;;10.52;6.63;;;16.30;78.90;;;;;;5028553;28;20116;-65
2023/08/28 05:33:09;;;;;;;10.25;7.32;;;16.30;78.90;;;;;;5028276;28;20108;-65
2023/08/28 05:35:35;;;;;;;10.30;7.22;;;16.30;79.00;;;;;;5029298;28;20092;-65
2023/08/28 05:38:01;;;;;;;10.15;7.22;;;16.30;78.90;;;;;;5010397;28;20071;-65
2023/08/28 05:40:27;;;;;;;10.57;7.43;;;16.30;78.90;;;;;;5033497;28;20399;-65
2023/08/28 05:42:52;;;;;;;10.43;6.70;;;16.30;78.90;;;;;;5028087;28;20045;-66
2023/08/28 05:45:18;;;;;;;9.55;6.90;;;16.40;79.00;;;;;;5029325;28;21405;-68
2023/08/28 05:47:44;;;;;;;9.77;7.15;;;16.40;79.00;;;;;;5026065;28;20344;-65
2023/08/28 05:50:11;;;;;;;9.52;7.35;;;16.50;79.00;;;;;;5025589;28;20021;-66
2023/08/28 05:52:37;;;;;;;11.82;7.80;;;16.60;78.90;;;;;;5022991;28;20025;-67
2023/08/28 05:55:06;;;;;;;11.65;7.05;;;16.60;78.80;;;;;;5027182;28;20076;-66
2023/08/28 05:57:34;;;;;;;9.82;7.15;;;16.70;78.90;;;;;;5027820;28;20048;-66
2023/08/28 06:00:00;;;;;;;13.18;8.55;;;16.70;78.80;;;;;;5026905;28;20435;-67
2023/08/28 06:02:26;;;;;;;9.85;6.90;;;16.70;78.80;;;;;;5032325;28;20378;-67
2023/08/28 06:04:54;;;;;;;10.60;7.45;;;16.80;78.90;;;;;;5024865;28;20025;-66
2023/08/28 06:07:20;;;;;;;13.05;8.13;;;16.80;78.80;;;;;;5008493;28;20465;-67
2023/08/28 06:09:47;;;;;;;11.48;7.72;;;16.80;78.70;;;;;;5029358;28;20096;-66
2023/08/28 06:12:12;;;;;;;10.95;7.07;;;16.80;78.80;;;;;;5027073;28;20064;-66
2023/08/28 06:14:38;;;;;;;11.85;7.85;;;16.80;78.80;;;;;;5025075;28;20121;-67
2023/08/28 06:17:05;;;;;;;10.57;8.05;;;16.90;78.80;;;;;;5025637;28;20052;-66
2023/08/28 06:19:30;;;;;;;11.73;7.60;;;16.90;78.90;;;;;;5026570;28;20068;-67
2023/08/28 06:22:02;;;;;;;11.95;7.80;;;16.90;78.80;;;;;;5028187;28;20335;-67
2023/08/28 06:24:28;;;;;;;11.02;7.70;;;17.00;78.80;;;;;;5026631;28;20104;-66
2023/08/28 06:26:54;;;;;;;9.60;7.25;;;17.00;78.80;;;;;;5027095;28;20193;-66
2023/08/28 06:29:19;;;;;;;10.45;7.75;;;17.00;78.80;;;;;;5035329;28;20120;-67
2023/08/28 06:31:45;;;;;;;11.57;8.18;;;17.10;78.80;;;;;;5026713;28;20022;-66
2023/08/28 06:34:11;;;;;;;10.18;7.70;;;17.00;78.70;;;;;;5027963;28;20021;-66
2023/08/28 06:36:37;;;;;;;10.23;7.65;;;17.00;78.70;;;;;;5032999;28;20104;-66
2023/08/28 06:39:02;;;;;;;11.30;8.43;;;17.10;78.80;;;;;;5030014;28;20038;-66
2023/08/28 06:41:28;;;;;;;13.35;7.93;;;17.10;78.80;;;;;;5026214;28;20438;-66
2023/08/28 06:43:54;;;;;;;12.95;8.02;;;17.20;78.60;;;;;;5029006;28;20037;-68
2023/08/28 06:46:20;;;;;;;11.25;7.35;;;17.20;78.60;;;;;;5047548;28;20037;-65
2023/08/28 06:48:48;;;;;;;16.08;8.55;;;17.30;78.60;;;;;;5026765;28;20112;-69
2023/08/28 07:32:54;;;;;;;10.38;7.22;;;19.30;74.80;;;;;;5007153;28;20028;-67
2023/08/28 07:35:42;;;;;;;10.48;7.45;;;19.30;74.90;;;;;;5017820;28;20117;-67
2023/08/28 07:38:08;;;;;;;11.75;6.88;;;19.40;74.90;;;;;;5028225;28;20045;-67
2023/08/28 07:40:35;;;;;;;10.02;6.88;;;19.40;74.70;;;;;;5028955;28;20022;-67
2023/08/28 07:43:01;;;;;;;9.88;6.90;;;19.50;74.70;;;;;;5024733;28;20032;-67
2023/08/28 07:45:27;;;;;;;11.80;7.32;;;19.60;74.60;;;;;;5030772;28;20094;-67
2023/08/28 07:47:55;;;;;;;10.85;6.63;;;19.80;74.20;;;;;;5025654;28;20121;-67
2023/08/28 07:50:22;;;;;;;10.00;6.80;;;19.80;74.10;;;;;;5028247;28;20029;-67
2023/08/28 07:52:47;;;;;;;9.50;6.82;;;19.70;74.10;;;;;;5027277;28;20786;-67
2023/08/28 07:55:13;;;;;;;10.38;6.65;;;19.60;74.20;;;;;;5055684;28;20109;-67
2023/08/28 07:57:39;;;;;;;9.52;7.05;;;19.50;74.50;;;;;;5029110;28;20022;-66
2023/08/28 08:00:06;;;;;;;8.65;6.07;;;19.50;74.60;;;;;;5029349;28;20025;-66
2023/08/28 08:02:38;;;;;;;9.07;6.35;;;19.90;74.40;;;;;;5030251;28;20033;-67
2023/08/28 08:05:05;;;;;;;10.25;5.97;;;20.10;73.60;;;;;;5027313;28;20033;-66
2023/08/28 08:07:32;;;;;;;9.07;5.53;;;20.20;73.10;;;;;;5014869;28;20370;-69
2023/08/28 08:09:58;;;;;;;11.05;5.95;;;20.50;72.60;;;;;;5027710;28;20032;-67
2023/08/28 08:12:26;;;;;;;10.07;5.32;;;20.70;71.90;;;;;;5028099;28;20029;-67
2023/08/28 08:14:52;;;;;;;9.27;6.00;;;20.90;71.40;;;;;;5028586;28;20048;-66
2023/08/28 08:36:16;;;;;;;8.73;4.18;;;21.90;68.90;;;;;;5029239;28;20124;-66
2023/08/28 08:38:42;;;;;;;8.30;4.53;;;22.00;68.70;;;;;;5034689;28;20358;-67
2023/08/28 08:41:08;;;;;;;8.15;4.90;;;22.20;68.30;;;;;;5034909;28;20099;-67
2023/08/28 08:43:35;;;;;;;7.47;4.45;;;22.40;67.60;;;;;;5034519;28;20029;-66
2023/08/28 08:46:05;;;;;;;8.27;5.10;;;22.50;67.20;;;;;;5021915;28;20029;-66
2023/08/28 08:48:36;;;;;;;7.55;3.92;;;22.70;66.80;;;;;;5018417;28;20053;-66
2023/08/28 08:51:04;;;;;;;7.78;3.95;;;22.70;66.60;;;;;;5066466;28;20438;-67
2023/08/28 08:53:44;;;;;;;8.27;4.03;;;22.70;66.50;;;;;;5024799;28;20091;-67
2023/08/28 08:56:16;;;;;;;7.10;4.23;;;22.80;66.20;;;;;;5021847;28;20076;-67
2023/08/28 08:58:43;;;;;;;8.00;4.40;;;23.00;66.00;;;;;;5035556;28;20100;-65
2023/08/28 09:01:09;;;;;;;7.32;4.05;;;23.10;65.60;;;;;;5034318;28;20037;-65
2023/08/28 09:03:38;;;;;;;7.53;4.30;;;23.20;65.40;;;;;;5034253;28;20029;-65
2023/08/28 09:06:06;;;;;;;9.27;4.50;;;23.40;64.80;;;;;;5035544;28;20442;-65
2023/08/28 09:08:36;;;;;;;6.97;3.90;;;23.60;64.30;;;;;;5024447;28;20394;-64
2023/08/28 09:11:04;;;;;;;6.70;3.47;;;23.80;63.90;;;;;;5033400;28;20040;-64
2023/08/28 09:13:31;;;;;;;6.45;3.63;;;23.90;63.30;;;;;;5032641;28;20366;-67
2023/08/28 09:15:57;;;;;;;6.95;3.60;;;24.10;62.60;;;;;;5026862;28;20037;-66
2023/08/28 09:18:25;;;;;;;6.50;3.42;;;24.10;62.30;;;;;;5025621;28;20427;-65
2023/08/28 09:21:12;;;;;;;5.63;2.85;;;24.20;61.60;;;;;;5039716;28;20092;-64
2023/08/28 09:23:46;;;;;;;4.40;2.30;;;24.00;61.20;;;;;;5023461;28;20026;-65
2023/08/28 09:26:19;;;;;;;3.17;1.73;;;23.60;61.20;;;;;;5023902;28;20026;-65
2023/08/28 09:28:59;;;;;;;4.53;1.77;;;23.30;61.40;;;;;;5014189;28;20037;-65
2023/08/28 09:31:36;;;;;;;4.53;1.80;;;23.00;61.50;;;;;;5015119;28;20034;-65
2023/08/28 09:34:03;;;;;;;2.90;1.52;;;22.80;61.50;;;;;;5020652;28;20033;-65
2023/08/28 09:36:34;;;;;;;3.55;1.65;;;22.90;61.40;;;;;;5006076;28;20487;-65
2023/08/28 09:39:02;;;;;;;2.65;1.20;;;23.10;60.70;;;;;;5032891;28;20040;-66
2023/08/28 09:41:47;;;;;;;3.90;1.33;;;23.20;59.90;;;;;;5016426;28;20165;-66
2023/08/28 09:44:19;;;;;;;3.85;1.40;;;23.50;58.90;;;;;;5013868;28;20034;-66
2023/08/28 09:46:46;;;;;;;4.82;1.80;;;23.70;58.80;;;;;;5050715;28;20042;-66
2023/08/28 09:49:15;;;;;;;4.80;1.42;;;23.90;58.20;;;;;;5022315;28;20052;-65
2023/08/28 09:51:43;;;;;;;3.13;1.52;;;24.10;58.00;;;;;;5026611;28;20083;-66
2023/08/28 09:54:10;;;;;;;3.67;1.60;;;24.30;57.20;;;;;;5040277;28;20029;-66
2023/08/28 09:56:37;;;;;;;3.72;1.50;;;24.50;56.90;;;;;;5023099;28;20048;-66
2023/08/28 09:59:04;;;;;;;5.47;1.67;;;24.70;56.70;;;;;;5037503;28;20370;-65
2023/08/28 10:01:34;;;;;;;3.45;1.42;;;24.70;56.50;;;;;;5018330;28;20140;-66
2023/08/28 10:04:05;;;;;;;3.00;1.20;;;24.50;56.60;;;;;;5034617;28;20502;-66
2023/08/28 10:06:34;;;;;;;2.38;1.15;;;24.30;56.70;;;;;;5033375;28;20129;-66
2023/08/28 10:09:02;;;;;;;2.28;1.20;;;24.30;56.60;;;;;;5032377;28;20378;-66
2023/08/28 10:11:35;;;;;;;3.40;1.20;;;24.30;56.40;;;;;;5033887;28;20517;-67
2023/08/28 10:14:04;;;;;;;1.98;1.02;;;24.40;56.10;;;;;;5031224;28;20026;-66
2023/08/28 10:16:33;;;;;;;2.95;1.20;;;24.50;56.30;;;;;;5033506;28;20033;-66
2023/08/28 10:19:25;;;;;;;2.40;1.08;;;24.50;56.00;;;;;;5033538;28;20025;-66
2023/08/28 10:21:52;;;;;;;2.00;1.13;;;24.60;55.40;;;;;;5044513;28;20448;-66
2023/08/28 10:24:19;;;;;;;3.03;1.38;;;24.40;55.80;;;;;;5023290;28;20064;-66
2023/08/28 10:26:47;;;;;;;4.43;1.23;;;24.00;56.30;;;;;;5033227;28;20090;-66
2023/08/28 10:29:17;;;;;;;2.92;1.20;;;23.70;57.00;;;;;;5036417;28;20456;-66
2023/08/28 10:31:44;;;;;;;4.15;1.48;;;23.40;57.60;;;;;;5034633;28;20022;-66
2023/08/28 10:34:11;;;;;;;3.20;1.35;;;23.10;57.90;;;;;;5036850;28;20026;-66
2023/08/28 10:40:32;;;;;;;1.98;0.80;;;23.10;58.20;;;;;;5026779;28;20072;-67
2023/08/28 10:42:58;;;;;;;1.85;1.08;;;23.40;57.80;;;;;;5027964;28;20058;-66
2023/08/28 10:45:24;;;;;;;2.50;1.20;;;23.70;57.50;;;;;;5027389;28;20025;-66
2023/08/28 10:47:50;;;;;;;2.85;1.23;;;23.90;57.00;;;;;;5032326;28;20028;-66
2023/08/28 10:50:17;;;;;;;3.60;1.00;;;24.20;56.60;;;;;;5027517;28;20733;-66
2023/08/28 10:52:45;;;;;;;3.00;1.20;;;24.20;56.10;;;;;;5028778;28;20029;-66
2023/08/28 10:55:15;;;;;;;3.38;1.20;;;24.30;56.20;;;;;;5030990;28;20422;-66
2023/08/28 10:57:48;;;;;;;3.57;1.13;;;24.30;55.40;;;;;;5029876;28;20060;-66
2023/08/28 11:00:18;;;;;;;3.10;0.95;;;24.40;55.30;;;;;;5027609;28;20787;-66
2023/08/28 11:03:06;;;;;;;1.63;0.93;;;24.50;55.10;;;;;;5030843;28;20037;-66
2023/08/28 11:05:35;;;;;;;2.47;1.17;;;24.70;54.70;;;;;;5044751;28;20033;-67
2023/08/28 11:08:06;;;;;;;1.42;0.95;;;24.80;54.40;;;;;;5029695;28;20104;-67
2023/08/28 11:10:32;;;;;;;3.17;1.00;;;24.90;54.10;;;;;;5028295;28;20026;-67
2023/08/28 11:13:06;;;;;;;2.65;0.90;;;25.00;54.00;;;;;;5031727;28;20060;-66
2023/08/28 11:15:34;;;;;;;2.88;1.10;;;24.90;53.70;;;;;;5058566;28;20026;-67
2023/08/28 11:18:19;;;;;;;3.67;1.15;;;24.70;54.00;;;;;;5017202;28;20026;-67
2023/08/28 11:21:06;;;;;;;2.72;1.10;;;24.70;53.90;;;;;;5027760;28;20040;-67
2023/08/28 11:23:36;;;;;;;4.07;1.52;;;24.80;53.90;;;;;;5031892;28;20125;-67
2023/08/28 11:26:23;;;;;;;4.57;1.63;;;24.90;53.90;;;;;;5027050;28;20021;-67
2023/08/28 11:28:50;;;;;;;4.10;1.35;;;24.90;53.90;;;;;;5027770;28;20037;-67
2023/08/28 11:31:21;;;;;;;2.83;1.00;;;25.00;53.80;;;;;;5032121;28;20069;-66
2023/08/28 11:33:49;;;;;;;3.88;1.27;;;24.90;53.70;;;;;;5027256;28;20100;-67
2023/08/28 11:36:18;;;;;;;1.88;0.90;;;24.80;53.70;;;;;;5027276;28;20053;-68
2023/08/28 11:38:45;;;;;;;2.83;1.00;;;24.50;54.00;;;;;;5027965;28;20033;-68
2023/08/28 11:41:11;;;;;;;3.42;1.52;;;24.40;54.40;;;;;;5029696;28;20013;-68
2023/08/28 11:43:42;;;;;;;2.53;1.15;;;24.30;54.60;;;;;;5031792;28;20025;-69
2023/08/28 11:46:12;;;;;;;1.85;1.00;;;24.40;54.30;;;;;;5027289;28;20434;-69
2023/08/28 11:48:44;;;;;;;3.33;0.90;;;24.50;54.10;;;;;;5030222;28;20029;-69
2023/08/28 11:51:10;;;;;;;4.80;1.30;;;24.60;54.20;;;;;;5025990;28;20033;-68
2023/08/28 11:53:40;;;;;;;2.95;1.10;;;24.70;53.80;;;;;;5028183;28;20030;-68
2023/08/28 11:56:07;;;;;;;2.83;1.00;;;24.60;53.60;;;;;;5033396;28;20025;-68
2023/08/28 11:58:35;;;;;;;2.33;0.95;;;24.50;53.70;;;;;;5031386;28;20033;-68
2023/08/28 12:01:05;;;;;;;2.42;0.90;;;24.40;53.60;;;;;;5031618;28;20347;-68
2023/08/28 12:03:32;;;;;;;1.37;0.80;;;24.10;53.70;;;;;;5043853;28;20044;-68
2023/08/28 12:06:04;;;;;;;2.53;1.00;;;23.90;54.30;;;;;;5026779;28;20017;-68
2023/08/28 12:08:33;;;;;;;1.88;0.80;;;23.90;53.60;;;;;;5029107;28;20030;-68
2023/08/28 12:11:00;;;;;;;3.17;0.98;;;23.90;53.40;;;;;;5025310;28;20040;-68
2023/08/28 12:13:25;;;;;;;1.88;0.88;;;23.80;53.50;;;;;;5030734;28;20338;-68
2023/08/28 12:15:51;;;;;;;1.88;0.75;;;23.90;53.40;;;;;;5029537;28;20025;-68
2023/08/28 12:18:17;;;;;;;1.20;0.68;;;23.80;53.20;;;;;;5028418;28;20033;-67
2023/08/28 12:20:43;;;;;;;3.00;1.13;;;23.70;53.20;;;;;;5027328;28;20030;-68
2023/08/28 12:23:12;;;;;;;2.20;0.90;;;23.60;53.60;;;;;;5035329;28;20030;-68
2023/08/28 12:25:40;;;;;;;3.40;0.93;;;23.70;54.00;;;;;;5029653;28;20385;-68
2023/08/28 12:28:07;;;;;;;2.03;0.80;;;23.60;54.00;;;;;;5023802;28;20358;-67
2023/08/28 12:30:34;;;;;;;2.25;0.95;;;23.60;54.40;;;;;;5029353;28;20033;-67
2023/08/28 12:33:03;;;;;;;1.92;0.90;;;23.50;54.50;;;;;;5028325;28;20060;-67
2023/08/28 12:35:37;;;;;;;1.85;0.80;;;23.50;54.80;;;;;;5030044;28;22212;-67
2023/08/28 12:38:04;;;;;;;2.15;1.02;;;23.40;54.80;;;;;;5052677;28;20276;-67
2023/08/28 12:40:35;;;;;;;2.65;0.88;;;23.50;54.70;;;;;;5030237;28;20033;-67
2023/08/28 12:43:03;;;;;;;2.97;0.70;;;23.50;54.30;;;;;;5029982;28;20083;-67
2023/08/28 12:45:31;;;;;;;2.35;0.90;;;23.50;54.30;;;;;;5024418;28;20033;-66
2023/08/28 12:47:57;;;;;;;2.22;0.90;;;23.60;54.10;;;;;;5031273;28;20163;-67
2023/08/28 12:50:23;;;;;;;1.40;0.70;;;23.70;53.80;;;;;;5025503;28;20116;-67
2023/08/28 12:52:48;;;;;;;2.88;0.95;;;23.70;53.60;;;;;;5020347;28;20041;-67
2023/08/28 12:55:14;;;;;;;1.75;0.80;;;23.70;53.50;;;;;;5027435;28;20021;-67
2023/08/28 12:57:40;;;;;;;1.13;0.80;;;23.70;53.20;;;;;;5024731;28;20162;-67
2023/08/28 13:00:07;;;;;;;2.90;1.10;;;23.70;53.20;;;;;;5022922;28;20041;-67
2023/08/28 13:02:34;;;;;;;3.60;1.30;;;23.70;53.30;;;;;;5030151;28;20036;-67
2023/08/28 13:08:56;;;;;;;3.00;1.00;;;23.80;53.00;;;;;;5033702;28;20028;-67
2023/08/28 13:11:22;;;;;;;3.38;1.10;;;23.80;52.90;;;;;;5029527;28;20367;-67
2023/08/28 13:13:48;;;;;;;2.67;0.90;;;23.80;53.00;;;;;;5020333;28;20084;-68
2023/08/28 13:16:14;;;;;;;2.53;0.90;;;23.80;53.10;;;;;;5030150;28;20033;-67
2023/08/28 13:18:40;;;;;;;1.73;0.93;;;23.70;53.20;;;;;;5034475;28;20076;-68
2023/08/28 13:21:07;;;;;;;1.88;0.85;;;23.70;53.20;;;;;;5022106;28;20053;-67
2023/08/28 13:23:33;;;;;;;3.90;0.90;;;23.60;53.60;;;;;;5034626;28;20060;-66
2023/08/28 13:25:59;;;;;;;1.70;0.80;;;23.50;54.50;;;;;;5040815;28;20018;-67
2023/08/28 13:28:25;;;;;;;2.60;0.90;;;23.50;54.10;;;;;;5035239;28;20167;-67
2023/08/28 13:30:51;;;;;;;2.22;0.80;;;23.50;54.00;;;;;;5034744;28;20068;-67
2023/08/28 13:33:17;;;;;;;1.60;0.90;;;23.60;54.00;;;;;;5034636;28;20033;-66
2023/08/28 13:35:43;;;;;;;1.92;1.00;;;23.60;53.70;;;;;;5034631;28;20041;-67
2023/08/28 13:38:09;;;;;;;2.72;0.90;;;23.70;53.50;;;;;;5042483;28;20082;-68
2023/08/28 13:40:35;;;;;;;1.45;0.73;;;23.80;53.50;;;;;;5036491;28;20763;-67
2023/08/28 13:43:03;;;;;;;3.78;0.80;;;23.90;53.60;;;;;;5024503;28;20034;-67
2023/08/28 13:45:30;;;;;;;1.40;0.88;;;23.90;53.70;;;;;;5021398;28;20434;-67
2023/08/28 13:47:56;;;;;;;3.47;1.00;;;23.90;53.70;;;;;;5031405;28;20024;-68
2023/08/28 13:50:22;;;;;;;3.33;1.10;;;23.90;53.70;;;;;;5034478;28;20025;-67
2023/08/28 13:52:48;;;;;;;2.83;1.00;;;23.80;53.90;;;;;;5023812;28;20041;-67
2023/08/28 13:55:14;;;;;;;2.72;0.85;;;23.60;53.90;;;;;;5029179;28;20026;-68
2023/08/28 13:57:40;;;;;;;3.00;0.80;;;23.50;54.20;;;;;;5026968;28;20470;-67